Quentin — WDF2404 — position and weather

sailwx.info

Track history (hours):
 
Tides and Currents Weather Stations Pressure Air Temp Water Temp Dewpoint Dewpoint Depression Visibility Wind Speed Wind Dir Waves Ship Positions

Quentin

Owner: Enterprise Marine Services, LLC, San Antonio, TX. More information available from US FCC via Universal Licensing System and Coast Guard Vessel Documentation Center.

Last reported at 2018-Jun-22 08:31 UTC. Time now 2018-Jun-22 08:45 UTC.
Position N 30°06' W 093°18'.

Length 22 m; draft 2.7 m.

Type: Tug. MMSI: 367003810.

Date/timePositionNaut miles runAvg speedWind from/ knotsBaromVisibWave heightAir tempDewpointWater temp
2018-Jun-22 08:31N 30°06' W 093°18'0 0.0
2018-Jun-22 08:01N 30°06' W 093°18'0 0.1
2018-Jun-22 07:31N 30°06' W 093°18'0 0.0
2018-Jun-22 07:01N 30°06' W 093°18'0 0.0
2018-Jun-22 06:31N 30°06' W 093°18'0 0.1
2018-Jun-22 06:01N 30°06' W 093°18'0 0.0
2018-Jun-22 05:31N 30°06' W 093°18'1 1.5
2018-Jun-22 05:01N 30°06' W 093°19'2 3.4
2018-Jun-22 04:30N 30°05' W 093°20'0 0.8
2018-Jun-22 04:01N 30°04' W 093°20'0 0.8
2018-Jun-22 03:30N 30°05' W 093°20'3 6.2
2018-Jun-22 03:00N 30°08' W 093°20'1 1.0
2018-Jun-22 02:30N 30°08' W 093°19'0 0.0
2018-Jun-22 02:00N 30°08' W 093°19'0 0.0
2018-Jun-22 01:31N 30°08' W 093°19'0 0.0
2018-Jun-22 01:01N 30°08' W 093°19'0 0.0
2018-Jun-22 00:30N 30°08' W 093°19'0 0.0
2018-Jun-22 00:00N 30°08' W 093°19'0 0.0
2018-Jun-21 23:31N 30°08' W 093°19'0 0.0
2018-Jun-21 23:00N 30°08' W 093°19'0 0.0
2018-Jun-21 22:31N 30°08' W 093°19'0 0.0
2018-Jun-21 22:01N 30°08' W 093°19'0 0.0
2018-Jun-21 21:30N 30°08' W 093°19'0 0.0
2018-Jun-21 21:00N 30°08' W 093°19'0 0.0
2018-Jun-21 20:31N 30°08' W 093°19'0 0.0
2018-Jun-21 20:01N 30°08' W 093°19'0 0.0
2018-Jun-21 19:31N 30°08' W 093°19'0 0.0
2018-Jun-21 19:01N 30°08' W 093°19'0 0.0
2018-Jun-21 18:31N 30°08' W 093°19'0 0.0
2018-Jun-21 18:01N 30°08' W 093°19'0 0.0
2018-Jun-21 17:31N 30°08' W 093°19'0 0.0
2018-Jun-21 17:01N 30°08' W 093°19'0 0.0
2018-Jun-21 16:31N 30°08' W 093°19'2 3.0
2018-Jun-21 16:01N 30°07' W 093°20'2 3.9
2018-Jun-21 15:31N 30°05' W 093°20'0 0.1
2018-Jun-21 15:01N 30°05' W 093°20'0 0.8
2018-Jun-21 14:30N 30°04' W 093°20'1 2.7
2018-Jun-21 14:01N 30°05' W 093°20'3 5.3
2018-Jun-21 13:31N 30°08' W 093°19'0 0.0
2018-Jun-21 13:01N 30°08' W 093°19'0 0.0
2018-Jun-21 12:31N 30°08' W 093°19'0 0.0
2018-Jun-21 12:01N 30°08' W 093°19'0 0.0
2018-Jun-21 11:30N 30°08' W 093°19'0 0.0
2018-Jun-21 11:01N 30°08' W 093°19'0 0.0
2018-Jun-21 10:31N 30°08' W 093°19'0 0.0
2018-Jun-21 10:00N 30°08' W 093°19'0 0.0
2018-Jun-21 09:31N 30°08' W 093°19'0 0.0
2018-Jun-21 09:01N 30°08' W 093°19'0 0.0
2018-Jun-21 08:31N 30°08' W 093°19'0 0.0
2018-Jun-21 08:01N 30°08' W 093°19'0 0.0
2018-Jun-21 07:30N 30°08' W 093°19'0 0.0
2018-Jun-21 07:01N 30°08' W 093°19'0 0.0
2018-Jun-21 06:30N 30°08' W 093°19'0 0.0
2018-Jun-21 06:01N 30°08' W 093°19'0 0.0
2018-Jun-21 05:31N 30°08' W 093°19'0 0.0
2018-Jun-21 05:01N 30°08' W 093°19'0 0.0
2018-Jun-21 04:31N 30°08' W 093°19'0 0.0
2018-Jun-21 04:01N 30°08' W 093°19'0 0.0
2018-Jun-21 03:31N 30°08' W 093°19'0 0.0
2018-Jun-21 03:01N 30°08' W 093°19'0 0.0
2018-Jun-21 02:31N 30°08' W 093°19'0 0.0
2018-Jun-21 02:00N 30°08' W 093°19'0 0.3
2018-Jun-21 01:31N 30°08' W 093°20'1 2.6
2018-Jun-21 01:01N 30°07' W 093°20'2 4.2
2018-Jun-21 00:30N 30°05' W 093°20'0 0.1
2018-Jun-21 00:01N 30°05' W 093°20'1 1.0
2018-Jun-20 23:31N 30°05' W 093°20'0 0.0
2018-Jun-20 23:01N 30°05' W 093°20'0 0.0
2018-Jun-20 22:31N 30°05' W 093°20'0 0.0
2018-Jun-20 22:00N 30°05' W 093°20'0 0.0
2018-Jun-20 21:30N 30°05' W 093°20'0 0.0
2018-Jun-20 21:01N 30°05' W 093°20'0 0.0
2018-Jun-20 20:31N 30°05' W 093°20'0 0.0
2018-Jun-20 20:01N 30°05' W 093°20'0 0.7
2018-Jun-20 19:30N 30°05' W 093°20'0 0.4
2018-Jun-20 19:01N 30°05' W 093°20'0 0.0
2018-Jun-20 18:31N 30°05' W 093°20'0 0.8
2018-Jun-20 18:01N 30°05' W 093°20'0 0.5
2018-Jun-20 17:31N 30°05' W 093°20'0 0.0
2018-Jun-20 17:01N 30°05' W 093°20'0 0.0
2018-Jun-20 16:31N 30°05' W 093°20'0 0.0
2018-Jun-20 16:01N 30°05' W 093°20'0 0.0
2018-Jun-20 15:31N 30°05' W 093°20'0 0.0
2018-Jun-20 15:00N 30°05' W 093°20'0 0.0
2018-Jun-20 14:30N 30°05' W 093°20'0 0.4
2018-Jun-20 14:01N 30°05' W 093°20'0 0.4
2018-Jun-20 13:31N 30°05' W 093°20'0 0.3
2018-Jun-20 13:00N 30°05' W 093°20'1 2.9
2018-Jun-20 12:30N 30°06' W 093°19'1 1.3
2018-Jun-20 12:01N 30°06' W 093°18'0 0.3
2018-Jun-20 11:31N 30°06' W 093°18'1 1.4
2018-Jun-20 11:00N 30°05' W 093°18'1 1.3
2018-Jun-20 10:31N 30°05' W 093°17'1 1.9
2018-Jun-20 10:01N 30°04' W 093°16'0 0.5
2018-Jun-20 09:30N 30°04' W 093°16'0 0.0
2018-Jun-20 08:58N 30°04' W 093°16'0 0.0
2018-Jun-20 08:30N 30°04' W 093°16'0 0.0
2018-Jun-20 08:01N 30°04' W 093°16'0 0.0
2018-Jun-20 07:31N 30°04' W 093°16'0 0.0
2018-Jun-20 07:00N 30°04' W 093°16'0 0.0
2018-Jun-20 06:30N 30°04' W 093°16'0 0.1
2018-Jun-20 06:01N 30°04' W 093°16'0 0.1
2018-Jun-20 05:31N 30°04' W 093°16'0 0.0
2018-Jun-20 05:01N 30°04' W 093°16'0 0.0
2018-Jun-20 04:31N 30°04' W 093°16'0 0.3
2018-Jun-20 04:00N 30°04' W 093°16'1 2.1
2018-Jun-20 03:30N 30°03' W 093°16'1 2.1
2018-Jun-20 03:00N 30°02' W 093°15'0 0.0
2018-Jun-20 02:22N 30°02' W 093°15'0 0.0
2018-Jun-20 02:00N 30°02' W 093°15'0 0.0
2018-Jun-20 01:30N 30°02' W 093°15'0 0.1
2018-Jun-20 01:00N 30°02' W 093°15'0 0.0
2018-Jun-20 00:31N 30°02' W 093°15'0 0.1
2018-Jun-20 00:00N 30°02' W 093°15'0 0.1
2018-Jun-19 23:29N 30°02' W 093°15'0 0.1
2018-Jun-19 23:00N 30°02' W 093°15'0 0.3
2018-Jun-19 22:30N 30°02' W 093°15'0 0.0
2018-Jun-19 22:01N 30°02' W 093°15'0 0.0
2018-Jun-19 21:31N 30°02' W 093°15'0 0.0
2018-Jun-19 20:59N 30°02' W 093°15'1 1.1
2018-Jun-19 20:30N 30°01' W 093°14'1 3.0
2018-Jun-19 20:01N 30°00' W 093°14'0 0.6
2018-Jun-19 19:31N 29°60' W 093°13'0 0.0
2018-Jun-19 19:01N 29°60' W 093°13'0 0.0
2018-Jun-19 18:31N 29°60' W 093°13'0 0.0
2018-Jun-19 18:00N 29°60' W 093°13'0 0.0
2018-Jun-19 17:30N 29°60' W 093°13'1 1.1
2018-Jun-19 17:00N 29°59' W 093°13'2 4.7
2018-Jun-19 16:30N 29°58' W 093°11'39 4.1
2018-Jun-19 07:11N 29°53' W 092°27'1 4.8
2018-Jun-19 06:56N 29°53' W 092°25'4 4.1
2018-Jun-19 05:59N 29°51' W 092°22'2 4.2
2018-Jun-19 05:29N 29°50' W 092°19'2 3.4
2018-Jun-19 05:00N 29°50' W 092°18'2 3.2
2018-Jun-19 04:30N 29°49' W 092°16'2 3.5
2018-Jun-19 04:01N 29°48' W 092°14'2 3.6
2018-Jun-19 03:31N 29°47' W 092°13'0 0.9
2018-Jun-19 03:01N 29°47' W 092°12'1 1.7
2018-Jun-19 02:31N 29°47' W 092°11'0 0.1
2018-Jun-19 02:01N 29°47' W 092°11'0 0.0
2018-Jun-19 01:31N 29°47' W 092°11'0 0.1
2018-Jun-19 01:00N 29°47' W 092°11'0 0.0
2018-Jun-19 00:30N 29°47' W 092°11'0 0.0
2018-Jun-19 00:00N 29°47' W 092°11'0 0.0
2018-Jun-18 23:31N 29°47' W 092°11'0 0.1
2018-Jun-18 23:01N 29°47' W 092°11'0 0.0
2018-Jun-18 22:29N 29°47' W 092°11'0 0.0
2018-Jun-18 22:01N 29°47' W 092°11'0 0.1
2018-Jun-18 21:30N 29°47' W 092°11'0 0.1
2018-Jun-18 21:01N 29°47' W 092°11'0 0.4
2018-Jun-18 20:29N 29°47' W 092°11'0 0.0
2018-Jun-18 19:59N 29°47' W 092°11'0 0.0
2018-Jun-18 19:31N 29°47' W 092°11'0 0.0
2018-Jun-18 19:01N 29°47' W 092°11'0 0.1
2018-Jun-18 18:29N 29°47' W 092°11'0 0.1
2018-Jun-18 18:00N 29°47' W 092°11'0 0.0
2018-Jun-18 17:31N 29°47' W 092°11'0 0.2
2018-Jun-18 17:00N 29°47' W 092°11'0 0.2
2018-Jun-18 16:31N 29°47' W 092°11'0 0.1
2018-Jun-18 16:00N 29°47' W 092°11'0 0.0
2018-Jun-18 15:31N 29°47' W 092°11'0 0.0
2018-Jun-18 15:00N 29°47' W 092°11'0 0.1
2018-Jun-18 14:30N 29°47' W 092°11'1 2.2
2018-Jun-18 14:01N 29°47' W 092°09'2 4.8
2018-Jun-18 13:31N 29°48' W 092°07'3 5.1
2018-Jun-18 13:01N 29°48' W 092°04'3 5.0
2018-Jun-18 12:31N 29°49' W 092°01'2 3.8
2018-Jun-18 12:00N 29°50' W 091°59'2 4.7
2018-Jun-18 11:29N 29°51' W 091°57'0 0.0
2018-Jun-17 01:46N 29°51' W 091°56'2 7.0
2018-Jun-17 01:30N 29°50' W 091°58'3 7.0
2018-Jun-17 01:01N 29°49' W 092°02'4 7.6
2018-Jun-17 00:30N 29°48' W 092°06'4 7.3
2018-Jun-17 00:01N 29°47' W 092°10'2 3.6
2018-Jun-16 23:31N 29°47' W 092°12'0 0.0
2018-Jun-16 23:01N 29°47' W 092°12'0 0.9
2018-Jun-16 22:31N 29°47' W 092°12'0 0.9
2018-Jun-16 22:00N 29°47' W 092°13'0 0.2
2018-Jun-16 21:29N 29°47' W 092°13'1 2.2
2018-Jun-16 21:00N 29°48' W 092°14'1 2.6
2018-Jun-16 20:31N 29°48' W 092°16'3 5.2
2018-Jun-16 20:00N 29°50' W 092°18'3 5.1
2018-Jun-16 19:30N 29°51' W 092°21'33 5.3
2018-Jun-16 13:09N 29°56' W 092°59'1 5.5
2018-Jun-16 13:00N 29°56' W 092°60'2 4.6
2018-Jun-16 12:30N 29°56' W 093°02'2 4.0
2018-Jun-16 11:59N 29°56' W 093°05'2 4.7
2018-Jun-16 11:30N 29°56' W 093°07'2 4.5
2018-Jun-16 11:00N 29°57' W 093°10'2 4.0
2018-Jun-16 10:31N 29°58' W 093°11'2 4.4
2018-Jun-16 10:00N 29°60' W 093°13'2 4.1
2018-Jun-16 09:31N 30°02' W 093°14'1 1.7
2018-Jun-16 09:01N 30°02' W 093°15'0 0.6
2018-Jun-16 08:31N 30°02' W 093°15'2 3.1
2018-Jun-16 08:00N 30°04' W 093°16'2 3.2
2018-Jun-16 07:31N 30°05' W 093°17'1 1.4
2018-Jun-16 07:01N 30°05' W 093°18'0 0.8
2018-Jun-16 06:31N 30°06' W 093°18'1 1.7
2018-Jun-16 06:01N 30°06' W 093°19'0 0.1
2018-Jun-16 05:30N 30°06' W 093°19'0 0.0
2018-Jun-16 05:01N 30°06' W 093°19'0 0.0
2018-Jun-16 04:31N 30°06' W 093°19'0 0.0
2018-Jun-16 04:01N 30°06' W 093°19'0 0.0
2018-Jun-16 03:30N 30°06' W 093°19'0 0.0
2018-Jun-16 03:01N 30°06' W 093°19'0 0.0
2018-Jun-16 02:31N 30°06' W 093°19'0 0.1
2018-Jun-16 02:01N 30°06' W 093°19'0 0.0
2018-Jun-16 01:30N 30°06' W 093°19'0 0.1
2018-Jun-16 01:01N 30°06' W 093°19'0 0.0
2018-Jun-16 00:31N 30°06' W 093°19'0 0.0
2018-Jun-16 00:00N 30°06' W 093°19'0 0.0
2018-Jun-15 23:30N 30°06' W 093°19'0 0.1
2018-Jun-15 23:01N 30°06' W 093°19'0 0.0
2018-Jun-15 22:30N 30°06' W 093°19'0 0.0
2018-Jun-15 22:01N 30°06' W 093°19'0 0.0
2018-Jun-15 21:31N 30°06' W 093°19'0 0.0
2018-Jun-15 21:00N 30°06' W 093°19'0 0.0
2018-Jun-15 20:31N 30°06' W 093°19'0 0.0
2018-Jun-15 20:00N 30°06' W 093°19'0 0.0
2018-Jun-15 19:30N 30°06' W 093°19'0 0.1
2018-Jun-15 19:00N 30°06' W 093°19'0 0.0
2018-Jun-15 18:31N 30°06' W 093°19'0 0.0
2018-Jun-15 18:00N 30°06' W 093°19'0 0.0
2018-Jun-15 17:31N 30°06' W 093°19'0 0.1
2018-Jun-15 17:01N 30°06' W 093°19'0 0.0
2018-Jun-15 16:31N 30°06' W 093°19'0 0.0
2018-Jun-15 16:01N 30°06' W 093°19'0 0.0
2018-Jun-15 15:31N 30°06' W 093°19'0 0.0
2018-Jun-15 15:00N 30°06' W 093°19'0 0.0
2018-Jun-15 14:30N 30°06' W 093°19'0 0.0
2018-Jun-15 14:01N 30°06' W 093°19'0 0.0
2018-Jun-15 13:31N 30°06' W 093°19'0 0.0
2018-Jun-15 13:01N 30°06' W 093°19'0 0.0
2018-Jun-15 12:31N 30°06' W 093°19'0 0.0
2018-Jun-15 12:01N 30°06' W 093°19'0 0.0
2018-Jun-15 11:30N 30°06' W 093°19'0 0.0
2018-Jun-15 11:00N 30°06' W 093°19'0 0.0
2018-Jun-15 10:31N 30°06' W 093°19'0 0.0
2018-Jun-15 10:01N 30°06' W 093°19'0 0.0
2018-Jun-15 09:31N 30°06' W 093°19'0 0.0
2018-Jun-15 09:00N 30°06' W 093°19'0 0.0
2018-Jun-15 08:30N 30°06' W 093°19'0 0.0
2018-Jun-15 08:01N 30°06' W 093°19'0 0.0
2018-Jun-15 07:31N 30°06' W 093°19'1 1.0
2018-Jun-15 07:01N 30°06' W 093°19'1 2.8
2018-Jun-15 06:30N 30°07' W 093°20'1 2.6
2018-Jun-15 06:00N 30°08' W 093°20'0 0.1
2018-Jun-15 05:31N 30°08' W 093°20'0 0.7
2018-Jun-15 05:01N 30°08' W 093°19'0 0.1
2018-Jun-15 04:31N 30°08' W 093°19'0 0.0
2018-Jun-15 04:01N 30°08' W 093°19'0 0.0
2018-Jun-15 03:30N 30°08' W 093°19'0 0.0
2018-Jun-15 03:01N 30°08' W 093°19'0 0.0
2018-Jun-15 02:31N 30°08' W 093°19'0 0.0
2018-Jun-15 02:01N 30°08' W 093°19'0 0.0
2018-Jun-15 01:30N 30°08' W 093°19'0 0.0
2018-Jun-15 01:01N 30°08' W 093°19'0 0.0
2018-Jun-15 00:31N 30°08' W 093°19'0 0.0
2018-Jun-15 00:01N 30°08' W 093°19'0 0.0
2018-Jun-14 23:30N 30°08' W 093°19'0 0.0
2018-Jun-14 23:01N 30°08' W 093°19'0 0.0
2018-Jun-14 22:31N 30°08' W 093°19'0 0.0
2018-Jun-14 22:01N 30°08' W 093°19'0 0.0
2018-Jun-14 21:31N 30°08' W 093°19'0 0.0
2018-Jun-14 21:00N 30°08' W 093°19'0 0.0
2018-Jun-14 20:30N 30°08' W 093°19'0 0.0
2018-Jun-14 20:01N 30°08' W 093°19'0 0.0
2018-Jun-14 19:31N 30°08' W 093°19'0 0.0
2018-Jun-14 19:00N 30°08' W 093°19'0 0.0
2018-Jun-14 18:31N 30°08' W 093°19'0 0.0
2018-Jun-14 18:00N 30°08' W 093°19'0 0.0
2018-Jun-14 17:31N 30°08' W 093°19'0 0.0
2018-Jun-14 17:00N 30°08' W 093°19'0 0.0
2018-Jun-14 16:31N 30°08' W 093°19'0 0.0
2018-Jun-14 16:00N 30°08' W 093°19'0 0.0
2018-Jun-14 15:31N 30°08' W 093°19'0 0.0
2018-Jun-14 15:00N 30°08' W 093°19'0 0.0
2018-Jun-14 14:30N 30°08' W 093°19'0 0.0
2018-Jun-14 14:01N 30°08' W 093°19'0 0.0
2018-Jun-14 13:31N 30°08' W 093°19'0 0.1
2018-Jun-14 13:01N 30°08' W 093°19'0 0.1
2018-Jun-14 12:30N 30°08' W 093°19'0 0.6
2018-Jun-14 12:01N 30°08' W 093°20'0 0.0
2018-Jun-14 11:31N 30°08' W 093°20'0 0.0
2018-Jun-14 11:01N 30°08' W 093°20'2 3.6
2018-Jun-14 10:30N 30°06' W 093°20'1 2.0
2018-Jun-14 10:01N 30°06' W 093°19'0 0.0
2018-Jun-14 09:28N 30°06' W 093°19'0 0.0
2018-Jun-14 09:00N 30°06' W 093°19'0 0.0
2018-Jun-14 08:31N 30°06' W 093°19'0 0.0
2018-Jun-14 08:01N 30°06' W 093°19'0 0.0
2018-Jun-14 07:30N 30°06' W 093°19'0 0.0
2018-Jun-14 07:00N 30°06' W 093°19'0 0.0
2018-Jun-14 06:31N 30°06' W 093°19'0 0.0
2018-Jun-14 06:00N 30°06' W 093°19'0 0.0
2018-Jun-14 05:30N 30°06' W 093°19'0 0.0
2018-Jun-14 05:00N 30°06' W 093°19'0 0.0
2018-Jun-14 04:31N 30°06' W 093°19'0 0.0
2018-Jun-14 04:01N 30°06' W 093°19'0 0.0
2018-Jun-14 03:31N 30°06' W 093°19'0 0.0
2018-Jun-14 03:01N 30°06' W 093°19'0 0.0
2018-Jun-14 02:30N 30°06' W 093°19'0 0.1
2018-Jun-14 02:01N 30°06' W 093°19'0 0.1
2018-Jun-14 01:30N 30°06' W 093°19'0 0.0
2018-Jun-14 01:00N 30°06' W 093°19'0 0.0
2018-Jun-14 00:31N 30°06' W 093°19'0 0.0
2018-Jun-14 00:01N 30°06' W 093°19'0 0.0
2018-Jun-13 23:31N 30°06' W 093°19'0 0.0
2018-Jun-13 22:59N 30°06' W 093°19'0 0.0
2018-Jun-13 22:31N 30°06' W 093°19'0 0.0
2018-Jun-13 22:01N 30°06' W 093°19'0 0.0
2018-Jun-13 21:30N 30°06' W 093°19'0 0.0
2018-Jun-13 21:00N 30°06' W 093°19'0 0.0
2018-Jun-13 20:31N 30°06' W 093°19'0 0.0
2018-Jun-13 20:01N 30°06' W 093°19'0 0.0
2018-Jun-13 19:31N 30°06' W 093°19'0 0.0
2018-Jun-13 19:01N 30°06' W 093°19'0 0.0
2018-Jun-13 18:30N 30°06' W 093°19'0 0.0
2018-Jun-13 17:58N 30°06' W 093°19'0 0.0
2018-Jun-13 17:30N 30°06' W 093°19'0 0.0
2018-Jun-13 17:01N 30°06' W 093°19'0 0.0
2018-Jun-13 16:30N 30°06' W 093°19'0 0.0
2018-Jun-13 16:01N 30°06' W 093°19'0 0.0
2018-Jun-13 15:31N 30°06' W 093°19'0 0.0
2018-Jun-13 15:01N 30°06' W 093°19'0 0.0
2018-Jun-13 14:31N 30°06' W 093°19'0 0.0
2018-Jun-13 14:01N 30°06' W 093°19'0 0.0
2018-Jun-13 13:31N 30°06' W 093°19'0 0.0
2018-Jun-13 13:00N 30°06' W 093°19'0 0.0
2018-Jun-13 12:30N 30°06' W 093°19'0 0.0
2018-Jun-13 12:00N 30°06' W 093°19'0 0.1
2018-Jun-13 11:31N 30°06' W 093°19'0 0.1
2018-Jun-13 11:00N 30°06' W 093°19'0 0.0
2018-Jun-13 10:31N 30°06' W 093°19'0 0.0
2018-Jun-13 10:01N 30°06' W 093°19'0 0.0
2018-Jun-13 09:31N 30°06' W 093°19'0 0.0
2018-Jun-13 09:00N 30°06' W 093°19'0 0.0
2018-Jun-13 08:31N 30°06' W 093°19'0 0.0
2018-Jun-13 07:58N 30°06' W 093°19'0 0.0
2018-Jun-13 07:31N 30°06' W 093°19'0 0.0
2018-Jun-13 07:00N 30°06' W 093°19'0 0.0
2018-Jun-13 06:31N 30°06' W 093°19'0 0.0
2018-Jun-13 06:01N 30°06' W 093°19'0 0.0
2018-Jun-13 05:31N 30°06' W 093°19'0 0.0
2018-Jun-13 05:01N 30°06' W 093°19'0 0.0
2018-Jun-13 04:31N 30°06' W 093°19'0 0.0
2018-Jun-13 04:01N 30°06' W 093°19'0 0.0
2018-Jun-13 03:30N 30°06' W 093°19'0 0.0
2018-Jun-13 03:01N 30°06' W 093°19'0 0.0
2018-Jun-13 02:31N 30°06' W 093°19'0 0.0
2018-Jun-13 02:01N 30°06' W 093°19'0 0.0
2018-Jun-13 01:30N 30°06' W 093°19'0 0.0
2018-Jun-13 01:01N 30°06' W 093°19'0 0.0
2018-Jun-13 00:31N 30°06' W 093°19'0 0.0
2018-Jun-13 00:01N 30°06' W 093°19'0 0.0
2018-Jun-12 23:31N 30°06' W 093°19'0 0.0
2018-Jun-12 23:01N 30°06' W 093°19'0 0.1
2018-Jun-12 22:31N 30°06' W 093°19'0 0.1
2018-Jun-12 22:00N 30°06' W 093°19'0 0.0
2018-Jun-12 21:30N 30°06' W 093°19'0 0.0
2018-Jun-12 21:00N 30°06' W 093°19'0 0.0
2018-Jun-12 20:31N 30°06' W 093°19'0 0.0
2018-Jun-12 20:01N 30°06' W 093°19'0 0.0
2018-Jun-12 19:31N 30°06' W 093°19'0 0.0
2018-Jun-12 19:01N 30°06' W 093°19'0 0.0
2018-Jun-12 18:30N 30°06' W 093°19'0 0.0
2018-Jun-12 18:00N 30°06' W 093°19'0 0.0
2018-Jun-12 17:31N 30°06' W 093°19'0 0.0
2018-Jun-12 17:00N 30°06' W 093°19'0 0.0
2018-Jun-12 16:31N 30°06' W 093°19'0 0.0
2018-Jun-12 16:01N 30°06' W 093°19'0 0.1
2018-Jun-12 15:31N 30°06' W 093°19'0 0.0
2018-Jun-12 14:54N 30°06' W 093°19'0 0.0
2018-Jun-12 14:31N 30°06' W 093°19'0 0.0
2018-Jun-12 14:01N 30°06' W 093°19'0 0.0
2018-Jun-12 13:31N 30°06' W 093°19'0 0.4
2018-Jun-12 13:00N 30°06' W 093°18'0 0.6
2018-Jun-12 12:31N 30°06' W 093°18'0 0.0
2018-Jun-12 12:01N 30°06' W 093°18'0 0.0
2018-Jun-12 11:30N 30°06' W 093°18'0 0.0
2018-Jun-12 11:00N 30°06' W 093°18'0 0.0
2018-Jun-12 10:31N 30°06' W 093°18'0 0.0
2018-Jun-12 10:00N 30°06' W 093°18'0 0.0
2018-Jun-12 09:31N 30°06' W 093°18'0 0.0
2018-Jun-12 09:01N 30°06' W 093°18'  
Track history (hours):
 
Tides and Currents Weather Stations Pressure Air Temp Water Temp Dewpoint Dewpoint Depression Visibility Wind Speed Wind Dir Waves Ship Positions

Quentin

Owner: Enterprise Marine Services, LLC, San Antonio, TX. More information available from US FCC via Universal Licensing System and Coast Guard Vessel Documentation Center.

Last reported at 2018-Jun-22 08:31 UTC. Time now 2018-Jun-22 08:45 UTC.
Position N 30°06' W 093°18'.

Length 22 m; draft 2.7 m.

Type: Tug. MMSI: 367003810.

Date/timePositionNaut miles runAvg speedWind from/ knotsBaromVisibWave heightAir tempDewpointWater temp
2018-Jun-22 08:31N 30°06' W 093°18'0 0.0
2018-Jun-22 08:01N 30°06' W 093°18'0 0.1
2018-Jun-22 07:31N 30°06' W 093°18'0 0.0
2018-Jun-22 07:01N 30°06' W 093°18'0 0.0
2018-Jun-22 06:31N 30°06' W 093°18'0 0.1
2018-Jun-22 06:01N 30°06' W 093°18'0 0.0
2018-Jun-22 05:31N 30°06' W 093°18'1 1.5
2018-Jun-22 05:01N 30°06' W 093°19'2 3.4
2018-Jun-22 04:30N 30°05' W 093°20'0 0.8
2018-Jun-22 04:01N 30°04' W 093°20'0 0.8
2018-Jun-22 03:30N 30°05' W 093°20'3 6.2
2018-Jun-22 03:00N 30°08' W 093°20'1 1.0
2018-Jun-22 02:30N 30°08' W 093°19'0 0.0
2018-Jun-22 02:00N 30°08' W 093°19'0 0.0
2018-Jun-22 01:31N 30°08' W 093°19'0 0.0
2018-Jun-22 01:01N 30°08' W 093°19'0 0.0
2018-Jun-22 00:30N 30°08' W 093°19'0 0.0
2018-Jun-22 00:00N 30°08' W 093°19'0 0.0
2018-Jun-21 23:31N 30°08' W 093°19'0 0.0
2018-Jun-21 23:00N 30°08' W 093°19'0 0.0
2018-Jun-21 22:31N 30°08' W 093°19'0 0.0
2018-Jun-21 22:01N 30°08' W 093°19'0 0.0
2018-Jun-21 21:30N 30°08' W 093°19'0 0.0
2018-Jun-21 21:00N 30°08' W 093°19'0 0.0
2018-Jun-21 20:31N 30°08' W 093°19'0 0.0
2018-Jun-21 20:01N 30°08' W 093°19'0 0.0
2018-Jun-21 19:31N 30°08' W 093°19'0 0.0
2018-Jun-21 19:01N 30°08' W 093°19'0 0.0
2018-Jun-21 18:31N 30°08' W 093°19'0 0.0
2018-Jun-21 18:01N 30°08' W 093°19'0 0.0
2018-Jun-21 17:31N 30°08' W 093°19'0 0.0
2018-Jun-21 17:01N 30°08' W 093°19'0 0.0
2018-Jun-21 16:31N 30°08' W 093°19'2 3.0
2018-Jun-21 16:01N 30°07' W 093°20'2 3.9
2018-Jun-21 15:31N 30°05' W 093°20'0 0.1
2018-Jun-21 15:01N 30°05' W 093°20'0 0.8
2018-Jun-21 14:30N 30°04' W 093°20'1 2.7
2018-Jun-21 14:01N 30°05' W 093°20'3 5.3
2018-Jun-21 13:31N 30°08' W 093°19'0 0.0
2018-Jun-21 13:01N 30°08' W 093°19'0 0.0
2018-Jun-21 12:31N 30°08' W 093°19'0 0.0
2018-Jun-21 12:01N 30°08' W 093°19'0 0.0
2018-Jun-21 11:30N 30°08' W 093°19'0 0.0
2018-Jun-21 11:01N 30°08' W 093°19'0 0.0
2018-Jun-21 10:31N 30°08' W 093°19'0 0.0
2018-Jun-21 10:00N 30°08' W 093°19'0 0.0
2018-Jun-21 09:31N 30°08' W 093°19'0 0.0
2018-Jun-21 09:01N 30°08' W 093°19'0 0.0
2018-Jun-21 08:31N 30°08' W 093°19'0 0.0
2018-Jun-21 08:01N 30°08' W 093°19'0 0.0
2018-Jun-21 07:30N 30°08' W 093°19'0 0.0
2018-Jun-21 07:01N 30°08' W 093°19'0 0.0
2018-Jun-21 06:30N 30°08' W 093°19'0 0.0
2018-Jun-21 06:01N 30°08' W 093°19'0 0.0
2018-Jun-21 05:31N 30°08' W 093°19'0 0.0
2018-Jun-21 05:01N 30°08' W 093°19'0 0.0
2018-Jun-21 04:31N 30°08' W 093°19'0 0.0
2018-Jun-21 04:01N 30°08' W 093°19'0 0.0
2018-Jun-21 03:31N 30°08' W 093°19'0 0.0
2018-Jun-21 03:01N 30°08' W 093°19'0 0.0
2018-Jun-21 02:31N 30°08' W 093°19'0 0.0
2018-Jun-21 02:00N 30°08' W 093°19'0 0.3
2018-Jun-21 01:31N 30°08' W 093°20'1 2.6
2018-Jun-21 01:01N 30°07' W 093°20'2 4.2
2018-Jun-21 00:30N 30°05' W 093°20'0 0.1
2018-Jun-21 00:01N 30°05' W 093°20'1 1.0
2018-Jun-20 23:31N 30°05' W 093°20'0 0.0
2018-Jun-20 23:01N 30°05' W 093°20'0 0.0
2018-Jun-20 22:31N 30°05' W 093°20'0 0.0
2018-Jun-20 22:00N 30°05' W 093°20'0 0.0
2018-Jun-20 21:30N 30°05' W 093°20'0 0.0
2018-Jun-20 21:01N 30°05' W 093°20'0 0.0
2018-Jun-20 20:31N 30°05' W 093°20'0 0.0
2018-Jun-20 20:01N 30°05' W 093°20'0 0.7
2018-Jun-20 19:30N 30°05' W 093°20'0 0.4
2018-Jun-20 19:01N 30°05' W 093°20'0 0.0
2018-Jun-20 18:31N 30°05' W 093°20'0 0.8
2018-Jun-20 18:01N 30°05' W 093°20'0 0.5
2018-Jun-20 17:31N 30°05' W 093°20'0 0.0
2018-Jun-20 17:01N 30°05' W 093°20'0 0.0
2018-Jun-20 16:31N 30°05' W 093°20'0 0.0
2018-Jun-20 16:01N 30°05' W 093°20'0 0.0
2018-Jun-20 15:31N 30°05' W 093°20'0 0.0
2018-Jun-20 15:00N 30°05' W 093°20'0 0.0
2018-Jun-20 14:30N 30°05' W 093°20'0 0.4
2018-Jun-20 14:01N 30°05' W 093°20'0 0.4
2018-Jun-20 13:31N 30°05' W 093°20'0 0.3
2018-Jun-20 13:00N 30°05' W 093°20'1 2.9
2018-Jun-20 12:30N 30°06' W 093°19'1 1.3
2018-Jun-20 12:01N 30°06' W 093°18'0 0.3
2018-Jun-20 11:31N 30°06' W 093°18'1 1.4
2018-Jun-20 11:00N 30°05' W 093°18'1 1.3
2018-Jun-20 10:31N 30°05' W 093°17'1 1.9
2018-Jun-20 10:01N 30°04' W 093°16'0 0.5
2018-Jun-20 09:30N 30°04' W 093°16'0 0.0
2018-Jun-20 08:58N 30°04' W 093°16'0 0.0
2018-Jun-20 08:30N 30°04' W 093°16'0 0.0
2018-Jun-20 08:01N 30°04' W 093°16'0 0.0
2018-Jun-20 07:31N 30°04' W 093°16'0 0.0
2018-Jun-20 07:00N 30°04' W 093°16'0 0.0
2018-Jun-20 06:30N 30°04' W 093°16'0 0.1
2018-Jun-20 06:01N 30°04' W 093°16'0 0.1
2018-Jun-20 05:31N 30°04' W 093°16'0 0.0
2018-Jun-20 05:01N 30°04' W 093°16'0 0.0
2018-Jun-20 04:31N 30°04' W 093°16'0 0.3
2018-Jun-20 04:00N 30°04' W 093°16'1 2.1
2018-Jun-20 03:30N 30°03' W 093°16'1 2.1
2018-Jun-20 03:00N 30°02' W 093°15'0 0.0
2018-Jun-20 02:22N 30°02' W 093°15'0 0.0
2018-Jun-20 02:00N 30°02' W 093°15'0 0.0
2018-Jun-20 01:30N 30°02' W 093°15'0 0.1
2018-Jun-20 01:00N 30°02' W 093°15'0 0.0
2018-Jun-20 00:31N 30°02' W 093°15'0 0.1
2018-Jun-20 00:00N 30°02' W 093°15'0 0.1
2018-Jun-19 23:29N 30°02' W 093°15'0 0.1
2018-Jun-19 23:00N 30°02' W 093°15'0 0.3
2018-Jun-19 22:30N 30°02' W 093°15'0 0.0
2018-Jun-19 22:01N 30°02' W 093°15'0 0.0
2018-Jun-19 21:31N 30°02' W 093°15'0 0.0
2018-Jun-19 20:59N 30°02' W 093°15'1 1.1
2018-Jun-19 20:30N 30°01' W 093°14'1 3.0
2018-Jun-19 20:01N 30°00' W 093°14'0 0.6
2018-Jun-19 19:31N 29°60' W 093°13'0 0.0
2018-Jun-19 19:01N 29°60' W 093°13'0 0.0
2018-Jun-19 18:31N 29°60' W 093°13'0 0.0
2018-Jun-19 18:00N 29°60' W 093°13'0 0.0
2018-Jun-19 17:30N 29°60' W 093°13'1 1.1
2018-Jun-19 17:00N 29°59' W 093°13'2 4.7
2018-Jun-19 16:30N 29°58' W 093°11'39 4.1
2018-Jun-19 07:11N 29°53' W 092°27'1 4.8
2018-Jun-19 06:56N 29°53' W 092°25'4 4.1
2018-Jun-19 05:59N 29°51' W 092°22'2 4.2
2018-Jun-19 05:29N 29°50' W 092°19'2 3.4
2018-Jun-19 05:00N 29°50' W 092°18'2 3.2
2018-Jun-19 04:30N 29°49' W 092°16'2 3.5
2018-Jun-19 04:01N 29°48' W 092°14'2 3.6
2018-Jun-19 03:31N 29°47' W 092°13'0 0.9
2018-Jun-19 03:01N 29°47' W 092°12'1 1.7
2018-Jun-19 02:31N 29°47' W 092°11'0 0.1
2018-Jun-19 02:01N 29°47' W 092°11'0 0.0
2018-Jun-19 01:31N 29°47' W 092°11'0 0.1
2018-Jun-19 01:00N 29°47' W 092°11'0 0.0
2018-Jun-19 00:30N 29°47' W 092°11'0 0.0
2018-Jun-19 00:00N 29°47' W 092°11'0 0.0
2018-Jun-18 23:31N 29°47' W 092°11'0 0.1
2018-Jun-18 23:01N 29°47' W 092°11'0 0.0
2018-Jun-18 22:29N 29°47' W 092°11'0 0.0
2018-Jun-18 22:01N 29°47' W 092°11'0 0.1
2018-Jun-18 21:30N 29°47' W 092°11'0 0.1
2018-Jun-18 21:01N 29°47' W 092°11'0 0.4
2018-Jun-18 20:29N 29°47' W 092°11'0 0.0
2018-Jun-18 19:59N 29°47' W 092°11'0 0.0
2018-Jun-18 19:31N 29°47' W 092°11'0 0.0
2018-Jun-18 19:01N 29°47' W 092°11'0 0.1
2018-Jun-18 18:29N 29°47' W 092°11'0 0.1
2018-Jun-18 18:00N 29°47' W 092°11'0 0.0
2018-Jun-18 17:31N 29°47' W 092°11'0 0.2
2018-Jun-18 17:00N 29°47' W 092°11'0 0.2
2018-Jun-18 16:31N 29°47' W 092°11'0 0.1
2018-Jun-18 16:00N 29°47' W 092°11'0 0.0
2018-Jun-18 15:31N 29°47' W 092°11'0 0.0
2018-Jun-18 15:00N 29°47' W 092°11'0 0.1
2018-Jun-18 14:30N 29°47' W 092°11'1 2.2
2018-Jun-18 14:01N 29°47' W 092°09'2 4.8
2018-Jun-18 13:31N 29°48' W 092°07'3 5.1
2018-Jun-18 13:01N 29°48' W 092°04'3 5.0
2018-Jun-18 12:31N 29°49' W 092°01'2 3.8
2018-Jun-18 12:00N 29°50' W 091°59'2 4.7
2018-Jun-18 11:29N 29°51' W 091°57'0 0.0
2018-Jun-17 01:46N 29°51' W 091°56'2 7.0
2018-Jun-17 01:30N 29°50' W 091°58'3 7.0
2018-Jun-17 01:01N 29°49' W 092°02'4 7.6
2018-Jun-17 00:30N 29°48' W 092°06'4 7.3
2018-Jun-17 00:01N 29°47' W 092°10'2 3.6
2018-Jun-16 23:31N 29°47' W 092°12'0 0.0
2018-Jun-16 23:01N 29°47' W 092°12'0 0.9
2018-Jun-16 22:31N 29°47' W 092°12'0 0.9
2018-Jun-16 22:00N 29°47' W 092°13'0 0.2
2018-Jun-16 21:29N 29°47' W 092°13'1 2.2
2018-Jun-16 21:00N 29°48' W 092°14'1 2.6
2018-Jun-16 20:31N 29°48' W 092°16'3 5.2
2018-Jun-16 20:00N 29°50' W 092°18'3 5.1
2018-Jun-16 19:30N 29°51' W 092°21'33 5.3
2018-Jun-16 13:09N 29°56' W 092°59'1 5.5
2018-Jun-16 13:00N 29°56' W 092°60'2 4.6
2018-Jun-16 12:30N 29°56' W 093°02'2 4.0
2018-Jun-16 11:59N 29°56' W 093°05'2 4.7
2018-Jun-16 11:30N 29°56' W 093°07'2 4.5
2018-Jun-16 11:00N 29°57' W 093°10'2 4.0
2018-Jun-16 10:31N 29°58' W 093°11'2 4.4
2018-Jun-16 10:00N 29°60' W 093°13'2 4.1
2018-Jun-16 09:31N 30°02' W 093°14'1 1.7
2018-Jun-16 09:01N 30°02' W 093°15'0 0.6
2018-Jun-16 08:31N 30°02' W 093°15'2 3.1
2018-Jun-16 08:00N 30°04' W 093°16'2 3.2
2018-Jun-16 07:31N 30°05' W 093°17'1 1.4
2018-Jun-16 07:01N 30°05' W 093°18'0 0.8
2018-Jun-16 06:31N 30°06' W 093°18'1 1.7
2018-Jun-16 06:01N 30°06' W 093°19'0 0.1
2018-Jun-16 05:30N 30°06' W 093°19'0 0.0
2018-Jun-16 05:01N 30°06' W 093°19'0 0.0
2018-Jun-16 04:31N 30°06' W 093°19'0 0.0
2018-Jun-16 04:01N 30°06' W 093°19'0 0.0
2018-Jun-16 03:30N 30°06' W 093°19'0 0.0
2018-Jun-16 03:01N 30°06' W 093°19'0 0.0
2018-Jun-16 02:31N 30°06' W 093°19'0 0.1
2018-Jun-16 02:01N 30°06' W 093°19'0 0.0
2018-Jun-16 01:30N 30°06' W 093°19'0 0.1
2018-Jun-16 01:01N 30°06' W 093°19'0 0.0
2018-Jun-16 00:31N 30°06' W 093°19'0 0.0
2018-Jun-16 00:00N 30°06' W 093°19'0 0.0
2018-Jun-15 23:30N 30°06' W 093°19'0 0.1
2018-Jun-15 23:01N 30°06' W 093°19'0 0.0
2018-Jun-15 22:30N 30°06' W 093°19'0 0.0
2018-Jun-15 22:01N 30°06' W 093°19'0 0.0
2018-Jun-15 21:31N 30°06' W 093°19'0 0.0
2018-Jun-15 21:00N 30°06' W 093°19'0 0.0
2018-Jun-15 20:31N 30°06' W 093°19'0 0.0
2018-Jun-15 20:00N 30°06' W 093°19'0 0.0
2018-Jun-15 19:30N 30°06' W 093°19'0 0.1
2018-Jun-15 19:00N 30°06' W 093°19'0 0.0
2018-Jun-15 18:31N 30°06' W 093°19'0 0.0
2018-Jun-15 18:00N 30°06' W 093°19'0 0.0
2018-Jun-15 17:31N 30°06' W 093°19'0 0.1
2018-Jun-15 17:01N 30°06' W 093°19'0 0.0
2018-Jun-15 16:31N 30°06' W 093°19'0 0.0
2018-Jun-15 16:01N 30°06' W 093°19'0 0.0
2018-Jun-15 15:31N 30°06' W 093°19'0 0.0
2018-Jun-15 15:00N 30°06' W 093°19'0 0.0
2018-Jun-15 14:30N 30°06' W 093°19'0 0.0
2018-Jun-15 14:01N 30°06' W 093°19'0 0.0
2018-Jun-15 13:31N 30°06' W 093°19'0 0.0
2018-Jun-15 13:01N 30°06' W 093°19'0 0.0
2018-Jun-15 12:31N 30°06' W 093°19'0 0.0
2018-Jun-15 12:01N 30°06' W 093°19'0 0.0
2018-Jun-15 11:30N 30°06' W 093°19'0 0.0
2018-Jun-15 11:00N 30°06' W 093°19'0 0.0
2018-Jun-15 10:31N 30°06' W 093°19'0 0.0
2018-Jun-15 10:01N 30°06' W 093°19'0 0.0
2018-Jun-15 09:31N 30°06' W 093°19'0 0.0
2018-Jun-15 09:00N 30°06' W 093°19'0 0.0
2018-Jun-15 08:30N 30°06' W 093°19'0 0.0
2018-Jun-15 08:01N 30°06' W 093°19'0 0.0
2018-Jun-15 07:31N 30°06' W 093°19'1 1.0
2018-Jun-15 07:01N 30°06' W 093°19'1 2.8
2018-Jun-15 06:30N 30°07' W 093°20'1 2.6
2018-Jun-15 06:00N 30°08' W 093°20'0 0.1
2018-Jun-15 05:31N 30°08' W 093°20'0 0.7
2018-Jun-15 05:01N 30°08' W 093°19'0 0.1
2018-Jun-15 04:31N 30°08' W 093°19'0 0.0
2018-Jun-15 04:01N 30°08' W 093°19'0 0.0
2018-Jun-15 03:30N 30°08' W 093°19'0 0.0
2018-Jun-15 03:01N 30°08' W 093°19'0 0.0
2018-Jun-15 02:31N 30°08' W 093°19'0 0.0
2018-Jun-15 02:01N 30°08' W 093°19'0 0.0
2018-Jun-15 01:30N 30°08' W 093°19'0 0.0
2018-Jun-15 01:01N 30°08' W 093°19'0 0.0
2018-Jun-15 00:31N 30°08' W 093°19'0 0.0
2018-Jun-15 00:01N 30°08' W 093°19'0 0.0
2018-Jun-14 23:30N 30°08' W 093°19'0 0.0
2018-Jun-14 23:01N 30°08' W 093°19'0 0.0
2018-Jun-14 22:31N 30°08' W 093°19'0 0.0
2018-Jun-14 22:01N 30°08' W 093°19'0 0.0
2018-Jun-14 21:31N 30°08' W 093°19'0 0.0
2018-Jun-14 21:00N 30°08' W 093°19'0 0.0
2018-Jun-14 20:30N 30°08' W 093°19'0 0.0
2018-Jun-14 20:01N 30°08' W 093°19'0 0.0
2018-Jun-14 19:31N 30°08' W 093°19'0 0.0
2018-Jun-14 19:00N 30°08' W 093°19'0 0.0
2018-Jun-14 18:31N 30°08' W 093°19'0 0.0
2018-Jun-14 18:00N 30°08' W 093°19'0 0.0
2018-Jun-14 17:31N 30°08' W 093°19'0 0.0
2018-Jun-14 17:00N 30°08' W 093°19'0 0.0
2018-Jun-14 16:31N 30°08' W 093°19'0 0.0
2018-Jun-14 16:00N 30°08' W 093°19'0 0.0
2018-Jun-14 15:31N 30°08' W 093°19'0 0.0
2018-Jun-14 15:00N 30°08' W 093°19'0 0.0
2018-Jun-14 14:30N 30°08' W 093°19'0 0.0
2018-Jun-14 14:01N 30°08' W 093°19'0 0.0
2018-Jun-14 13:31N 30°08' W 093°19'0 0.1
2018-Jun-14 13:01N 30°08' W 093°19'0 0.1
2018-Jun-14 12:30N 30°08' W 093°19'0 0.6
2018-Jun-14 12:01N 30°08' W 093°20'0 0.0
2018-Jun-14 11:31N 30°08' W 093°20'0 0.0
2018-Jun-14 11:01N 30°08' W 093°20'2 3.6
2018-Jun-14 10:30N 30°06' W 093°20'1 2.0
2018-Jun-14 10:01N 30°06' W 093°19'0 0.0
2018-Jun-14 09:28N 30°06' W 093°19'0 0.0
2018-Jun-14 09:00N 30°06' W 093°19'0 0.0
2018-Jun-14 08:31N 30°06' W 093°19'0 0.0
2018-Jun-14 08:01N 30°06' W 093°19'0 0.0
2018-Jun-14 07:30N 30°06' W 093°19'0 0.0
2018-Jun-14 07:00N 30°06' W 093°19'0 0.0
2018-Jun-14 06:31N 30°06' W 093°19'0 0.0
2018-Jun-14 06:00N 30°06' W 093°19'0 0.0
2018-Jun-14 05:30N 30°06' W 093°19'0 0.0
2018-Jun-14 05:00N 30°06' W 093°19'0 0.0
2018-Jun-14 04:31N 30°06' W 093°19'0 0.0
2018-Jun-14 04:01N 30°06' W 093°19'0 0.0
2018-Jun-14 03:31N 30°06' W 093°19'0 0.0
2018-Jun-14 03:01N 30°06' W 093°19'0 0.0
2018-Jun-14 02:30N 30°06' W 093°19'0 0.1
2018-Jun-14 02:01N 30°06' W 093°19'0 0.1
2018-Jun-14 01:30N 30°06' W 093°19'0 0.0
2018-Jun-14 01:00N 30°06' W 093°19'0 0.0
2018-Jun-14 00:31N 30°06' W 093°19'0 0.0
2018-Jun-14 00:01N 30°06' W 093°19'0 0.0
2018-Jun-13 23:31N 30°06' W 093°19'0 0.0
2018-Jun-13 22:59N 30°06' W 093°19'0 0.0
2018-Jun-13 22:31N 30°06' W 093°19'0 0.0
2018-Jun-13 22:01N 30°06' W 093°19'0 0.0
2018-Jun-13 21:30N 30°06' W 093°19'0 0.0
2018-Jun-13 21:00N 30°06' W 093°19'0 0.0
2018-Jun-13 20:31N 30°06' W 093°19'0 0.0
2018-Jun-13 20:01N 30°06' W 093°19'0 0.0
2018-Jun-13 19:31N 30°06' W 093°19'0 0.0
2018-Jun-13 19:01N 30°06' W 093°19'0 0.0
2018-Jun-13 18:30N 30°06' W 093°19'0 0.0
2018-Jun-13 17:58N 30°06' W 093°19'0 0.0
2018-Jun-13 17:30N 30°06' W 093°19'0 0.0
2018-Jun-13 17:01N 30°06' W 093°19'0 0.0
2018-Jun-13 16:30N 30°06' W 093°19'0 0.0
2018-Jun-13 16:01N 30°06' W 093°19'0 0.0
2018-Jun-13 15:31N 30°06' W 093°19'0 0.0
2018-Jun-13 15:01N 30°06' W 093°19'0 0.0
2018-Jun-13 14:31N 30°06' W 093°19'0 0.0
2018-Jun-13 14:01N 30°06' W 093°19'0 0.0
2018-Jun-13 13:31N 30°06' W 093°19'0 0.0
2018-Jun-13 13:00N 30°06' W 093°19'0 0.0
2018-Jun-13 12:30N 30°06' W 093°19'0 0.0
2018-Jun-13 12:00N 30°06' W 093°19'0 0.1
2018-Jun-13 11:31N 30°06' W 093°19'0 0.1
2018-Jun-13 11:00N 30°06' W 093°19'0 0.0
2018-Jun-13 10:31N 30°06' W 093°19'0 0.0
2018-Jun-13 10:01N 30°06' W 093°19'0 0.0
2018-Jun-13 09:31N 30°06' W 093°19'0 0.0
2018-Jun-13 09:00N 30°06' W 093°19'0 0.0
2018-Jun-13 08:31N 30°06' W 093°19'0 0.0
2018-Jun-13 07:58N 30°06' W 093°19'0 0.0
2018-Jun-13 07:31N 30°06' W 093°19'0 0.0
2018-Jun-13 07:00N 30°06' W 093°19'0 0.0
2018-Jun-13 06:31N 30°06' W 093°19'0 0.0
2018-Jun-13 06:01N 30°06' W 093°19'0 0.0
2018-Jun-13 05:31N 30°06' W 093°19'0 0.0
2018-Jun-13 05:01N 30°06' W 093°19'0 0.0
2018-Jun-13 04:31N 30°06' W 093°19'0 0.0
2018-Jun-13 04:01N 30°06' W 093°19'0 0.0
2018-Jun-13 03:30N 30°06' W 093°19'0 0.0
2018-Jun-13 03:01N 30°06' W 093°19'0 0.0
2018-Jun-13 02:31N 30°06' W 093°19'0 0.0
2018-Jun-13 02:01N 30°06' W 093°19'0 0.0
2018-Jun-13 01:30N 30°06' W 093°19'0 0.0
2018-Jun-13 01:01N 30°06' W 093°19'0 0.0
2018-Jun-13 00:31N 30°06' W 093°19'0 0.0
2018-Jun-13 00:01N 30°06' W 093°19'0 0.0
2018-Jun-12 23:31N 30°06' W 093°19'0 0.0
2018-Jun-12 23:01N 30°06' W 093°19'0 0.1
2018-Jun-12 22:31N 30°06' W 093°19'0 0.1
2018-Jun-12 22:00N 30°06' W 093°19'0 0.0
2018-Jun-12 21:30N 30°06' W 093°19'0 0.0
2018-Jun-12 21:00N 30°06' W 093°19'0 0.0
2018-Jun-12 20:31N 30°06' W 093°19'0 0.0
2018-Jun-12 20:01N 30°06' W 093°19'0 0.0
2018-Jun-12 19:31N 30°06' W 093°19'0 0.0
2018-Jun-12 19:01N 30°06' W 093°19'0 0.0
2018-Jun-12 18:30N 30°06' W 093°19'0 0.0
2018-Jun-12 18:00N 30°06' W 093°19'0 0.0
2018-Jun-12 17:31N 30°06' W 093°19'0 0.0
2018-Jun-12 17:00N 30°06' W 093°19'0 0.0
2018-Jun-12 16:31N 30°06' W 093°19'0 0.0
2018-Jun-12 16:01N 30°06' W 093°19'0 0.1
2018-Jun-12 15:31N 30°06' W 093°19'0 0.0
2018-Jun-12 14:54N 30°06' W 093°19'0 0.0
2018-Jun-12 14:31N 30°06' W 093°19'0 0.0
2018-Jun-12 14:01N 30°06' W 093°19'0 0.0
2018-Jun-12 13:31N 30°06' W 093°19'0 0.4
2018-Jun-12 13:00N 30°06' W 093°18'0 0.6
2018-Jun-12 12:31N 30°06' W 093°18'0 0.0
2018-Jun-12 12:01N 30°06' W 093°18'0 0.0
2018-Jun-12 11:30N 30°06' W 093°18'0 0.0
2018-Jun-12 11:00N 30°06' W 093°18'0 0.0
2018-Jun-12 10:31N 30°06' W 093°18'0 0.0
2018-Jun-12 10:00N 30°06' W 093°18'0 0.0
2018-Jun-12 09:31N 30°06' W 093°18'0 0.0
2018-Jun-12 09:01N 30°06' W 093°18'  

Dump ship's entire track history